Time;durP1;ratioP1;P1;durP2;ratioP2;P2;SDS_P1;SDS_P2;PMS_P1;PMS_P2;Temp;Humidity;BMP_temperature;BMP_pressure;BME280_temperature;BME280_humidity;BME280_pressure;Samples;Min_cycle;Max_cycle;Signal;HPM_P1;HPM_P2
2023/02/16 00:00:43;;;;;;;105.18;54.95;;;;;;;;;;5100658;28;20472;-67
2023/02/16 00:03:17;;;;;;;99.30;55.45;;;;;;;;;;5093479;28;20036;-68
2023/02/16 00:05:43;;;;;;;102.95;54.63;;;;;;;;;;5094616;28;21291;-67
2023/02/16 00:08:09;;;;;;;99.30;53.65;;;;;;;;;;5095146;28;20395;-68
2023/02/16 00:10:36;;;;;;;96.20;53.35;;;;;;;;;;5095877;28;20456;-67
2023/02/16 00:16:00;;;;;;;102.97;53.80;;;;;;;;;;5078272;28;20056;-67
2023/02/16 00:18:26;;;;;;;100.90;51.72;;;;;;;;;;5076356;28;20043;-67
2023/02/16 00:20:52;;;;;;;96.43;52.92;;;;;;;;;;5077120;28;20128;-67
2023/02/16 00:23:18;;;;;;;104.68;52.85;;;;;;;;;;5095101;28;20386;-67
2023/02/16 00:25:44;;;;;;;102.65;53.13;;;;;;;;;;5092081;28;20478;-67
2023/02/16 00:28:14;;;;;;;96.30;52.22;;;;;;;;;;5094101;28;20039;-67
2023/02/16 00:30:40;;;;;;;105.20;54.65;;;;;;;;;;5092755;28;20048;-68
2023/02/16 00:33:18;;;;;;;99.85;54.03;;;;;;;;;;5074599;28;20079;-68
2023/02/16 00:35:45;;;;;;;92.70;51.22;;;;;;;;;;5092725;28;20047;-67
2023/02/16 00:38:11;;;;;;;97.22;52.50;;;;;;;;;;5093725;28;20080;-67
2023/02/16 00:40:38;;;;;;;99.63;52.38;;;;;;;;;;5090132;28;20124;-67
2023/02/16 00:43:04;;;;;;;98.68;52.58;;;;;;;;;;5090084;28;20445;-67
2023/02/16 00:45:31;;;;;;;103.75;56.28;;;;;;;;;;5077736;28;20050;-67
2023/02/16 00:47:58;;;;;;;110.28;58.05;;;;;;;;;;5093786;28;20044;-67
2023/02/16 00:50:26;;;;;;;104.25;54.58;;;;;;;;;;5088530;28;20047;-67
2023/02/16 00:52:52;;;;;;;104.57;54.70;;;;;;;;;;5060579;28;20071;-67
2023/02/16 00:55:20;;;;;;;105.68;56.55;;;;;;;;;;5063927;28;20047;-68
2023/02/16 00:57:50;;;;;;;117.47;56.50;;;;;;;;;;5087618;28;20498;-68
2023/02/16 01:00:16;;;;;;;114.60;57.80;;;;;;;;;;5062406;28;20185;-68
2023/02/16 01:02:44;;;;;;;115.05;59.08;;;;;;;;;;5073614;28;20140;-67
2023/02/16 01:05:10;;;;;;;118.43;62.13;;;;;;;;;;5073020;28;20460;-68
2023/02/16 01:11:06;;;;;;;118.45;60.72;;;;;;;;;;5091202;28;20154;-67
2023/02/16 01:13:17;;;;;;;111.97;60.33;;;;;;;;;;5095237;28;20081;-67
2023/02/16 01:15:43;;;;;;;113.75;58.47;;;;;;;;;;5095683;28;20770;-68
2023/02/16 01:18:12;;;;;;;115.95;60.95;;;;;;;;;;5090555;28;20946;-67
2023/02/16 01:20:38;;;;;;;119.53;60.97;;;;;;;;;;5097163;28;20445;-67
2023/02/16 01:23:05;;;;;;;115.97;61.42;;;;;;;;;;5095102;28;20125;-67
2023/02/16 01:25:31;;;;;;;114.95;59.25;;;;;;;;;;5099586;28;20050;-67
2023/02/16 01:27:57;;;;;;;110.88;58.70;;;;;;;;;;5095716;28;20036;-67
2023/02/16 01:30:24;;;;;;;114.93;58.35;;;;;;;;;;5095404;28;20379;-67
2023/02/16 01:32:51;;;;;;;116.05;61.72;;;;;;;;;;5095401;28;20048;-67
2023/02/16 01:35:18;;;;;;;113.75;58.72;;;;;;;;;;5097536;28;20106;-67
2023/02/16 01:37:44;;;;;;;111.97;58.70;;;;;;;;;;5098251;28;20176;-67
2023/02/16 01:40:21;;;;;;;116.88;62.05;;;;;;;;;;5095985;28;20040;-67
2023/02/16 01:42:50;;;;;;;114.25;59.65;;;;;;;;;;5095754;28;20059;-67
2023/02/16 01:45:19;;;;;;;118.70;60.42;;;;;;;;;;5098284;28;20061;-67
2023/02/16 01:47:52;;;;;;;112.43;59.28;;;;;;;;;;5093195;28;20123;-68
2023/02/16 01:50:20;;;;;;;115.45;58.45;;;;;;;;;;5096859;28;20044;-67
2023/02/16 01:52:56;;;;;;;118.47;59.90;;;;;;;;;;5099380;28;20135;-68
2023/02/16 01:55:22;;;;;;;117.22;59.55;;;;;;;;;;5098129;28;20046;-67
2023/02/16 01:57:51;;;;;;;112.95;59.65;;;;;;;;;;5095685;28;20050;-67
2023/02/16 02:00:49;;;;;;;107.55;59.53;;;;;;;;;;5095622;28;20123;-67
2023/02/16 02:06:03;;;;;;;114.88;58.30;;;;;;;;;;5097503;28;20043;-67
2023/02/16 02:08:41;;;;;;;104.90;59.03;;;;;;;;;;5094942;28;20625;-68
2023/02/16 02:11:11;;;;;;;106.75;58.80;;;;;;;;;;5079555;28;20077;-68
2023/02/16 02:13:44;;;;;;;108.88;59.67;;;;;;;;;;5094283;28;20171;-67
2023/02/16 02:16:10;;;;;;;109.68;57.67;;;;;;;;;;5085347;28;20050;-68
2023/02/16 02:18:36;;;;;;;108.13;60.00;;;;;;;;;;5094114;28;20101;-67
2023/02/16 02:24:10;;;;;;;113.20;60.55;;;;;;;;;;5097055;28;20136;-67
2023/02/16 02:26:42;;;;;;;114.80;61.58;;;;;;;;;;5097739;28;20050;-67
2023/02/16 02:29:17;;;;;;;124.10;61.53;;;;;;;;;;5094927;28;20051;-68
2023/02/16 02:31:51;;;;;;;113.57;62.42;;;;;;;;;;5077316;28;20139;-67
2023/02/16 02:34:17;;;;;;;106.95;59.63;;;;;;;;;;5081058;28;20047;-67
2023/02/16 02:36:48;;;;;;;115.03;59.83;;;;;;;;;;5096051;28;20102;-67
2023/02/16 02:39:14;;;;;;;111.00;62.90;;;;;;;;;;5095616;28;20131;-67
2023/02/16 02:42:02;;;;;;;111.18;59.45;;;;;;;;;;5092806;28;20051;-68
2023/02/16 02:44:29;;;;;;;104.65;60.17;;;;;;;;;;5094815;28;20051;-67
2023/02/16 02:46:55;;;;;;;106.13;59.22;;;;;;;;;;5094993;28;20043;-67
2023/02/16 02:49:22;;;;;;;99.22;58.42;;;;;;;;;;5081738;28;21671;-68
2023/02/16 02:51:49;;;;;;;105.80;58.90;;;;;;;;;;5092942;28;20386;-67
2023/02/16 03:02:38;;;;;;;103.50;58.28;;;;;;;;;;5097296;28;20040;-67
2023/02/16 03:05:07;;;;;;;108.28;58.78;;;;;;;;;;5091678;28;20040;-67
2023/02/16 03:07:45;;;;;;;97.80;58.38;;;;;;;;;;5094147;28;20047;-67
2023/02/16 03:13:00;;;;;;;101.43;58.05;;;;;;;;;;5078097;28;20048;-67
2023/02/16 03:15:27;;;;;;;98.05;58.45;;;;;;;;;;5094996;28;20092;-68
2023/02/16 03:29:14;;;;;;;97.70;55.75;;;;;;;;;;5076680;28;20048;-68
2023/02/16 03:31:40;;;;;;;108.18;56.10;;;;;;;;;;5092883;28;20128;-68
2023/02/16 03:34:07;;;;;;;97.78;57.03;;;;;;;;;;5095924;28;20040;-68
2023/02/16 03:36:35;;;;;;;93.65;55.63;;;;;;;;;;5095787;28;20078;-67
2023/02/16 03:39:01;;;;;;;105.75;60.22;;;;;;;;;;5095346;28;20067;-67
2023/02/16 03:41:31;;;;;;;107.18;59.92;;;;;;;;;;5093898;27;20074;-68
2023/02/16 03:43:58;;;;;;;98.35;57.40;;;;;;;;;;5093418;27;20050;-67
2023/02/16 03:46:24;;;;;;;100.78;56.65;;;;;;;;;;5096311;27;20039;-68
2023/02/16 03:48:50;;;;;;;105.00;59.63;;;;;;;;;;5080356;28;20040;-67
2023/02/16 03:51:16;;;;;;;110.20;61.58;;;;;;;;;;5093864;27;20499;-68
2023/02/16 03:53:42;;;;;;;109.45;61.67;;;;;;;;;;5098624;27;20039;-67
2023/02/16 03:56:08;;;;;;;114.28;62.83;;;;;;;;;;5076425;28;20052;-67
2023/02/16 03:58:34;;;;;;;104.88;62.25;;;;;;;;;;5093330;27;20047;-67
2023/02/16 04:01:01;;;;;;;106.88;59.30;;;;;;;;;;5097645;28;20135;-67
2023/02/16 04:03:27;;;;;;;103.20;58.88;;;;;;;;;;5077299;28;20478;-67
2023/02/16 04:05:55;;;;;;;110.18;63.75;;;;;;;;;;5081353;28;20357;-67
2023/02/16 04:08:21;;;;;;;108.57;61.08;;;;;;;;;;5096122;27;20051;-68
2023/02/16 04:10:47;;;;;;;104.88;60.75;;;;;;;;;;5099734;27;20048;-67
2023/02/16 04:13:13;;;;;;;116.90;61.78;;;;;;;;;;5096955;27;20441;-67
2023/02/16 04:15:40;;;;;;;101.43;59.92;;;;;;;;;;5078253;27;20134;-67
2023/02/16 04:18:06;;;;;;;106.47;59.10;;;;;;;;;;5075491;28;20093;-68
2023/02/16 04:20:34;;;;;;;111.18;61.67;;;;;;;;;;5095094;28;20058;-67
2023/02/16 04:23:00;;;;;;;112.13;62.97;;;;;;;;;;5092322;28;20449;-67
2023/02/16 04:25:26;;;;;;;103.75;62.20;;;;;;;;;;5094016;28;20500;-67
2023/02/16 04:27:53;;;;;;;101.45;59.05;;;;;;;;;;5096298;28;20119;-67
2023/02/16 04:30:20;;;;;;;104.07;60.33;;;;;;;;;;5093781;27;20368;-67
2023/02/16 04:32:46;;;;;;;115.38;63.08;;;;;;;;;;5095286;28;20081;-67
2023/02/16 04:35:13;;;;;;;113.95;62.25;;;;;;;;;;5092302;27;20044;-68
2023/02/16 04:37:39;;;;;;;99.75;59.00;;;;;;;;;;5094137;27;20470;-67
2023/02/16 04:40:06;;;;;;;108.43;58.05;;;;;;;;;;5073048;28;20526;-67
2023/02/16 04:42:33;;;;;;;110.22;61.47;;;;;;;;;;5091433;28;20465;-67
2023/02/16 04:44:59;;;;;;;110.50;61.17;;;;;;;;;;5090883;28;20044;-67
2023/02/16 04:47:25;;;;;;;101.05;60.05;;;;;;;;;;5091584;28;20048;-67
2023/02/16 04:49:52;;;;;;;105.70;58.88;;;;;;;;;;5091316;28;20099;-67
2023/02/16 04:52:18;;;;;;;108.47;60.60;;;;;;;;;;5093542;28;20101;-67
2023/02/16 04:54:44;;;;;;;110.35;62.00;;;;;;;;;;5095488;28;20096;-67
2023/02/16 04:57:11;;;;;;;108.68;62.78;;;;;;;;;;5084960;28;20077;-68
2023/02/16 04:59:37;;;;;;;107.05;61.83;;;;;;;;;;5080762;28;20067;-67
2023/02/16 05:02:03;;;;;;;110.10;62.25;;;;;;;;;;5080756;28;20969;-67
2023/02/16 05:04:30;;;;;;;112.18;65.03;;;;;;;;;;5092731;28;20047;-68
2023/02/16 05:06:56;;;;;;;110.05;61.05;;;;;;;;;;5095605;28;20426;-67
2023/02/16 05:09:22;;;;;;;103.43;61.33;;;;;;;;;;5098929;28;20124;-67
2023/02/16 05:14:41;;;;;;;111.20;62.53;;;;;;;;;;5097198;28;20226;-68
2023/02/16 05:17:09;;;;;;;100.65;60.55;;;;;;;;;;5079441;28;20051;-67
2023/02/16 05:19:35;;;;;;;99.28;60.97;;;;;;;;;;5094604;28;20044;-67
2023/02/16 05:22:01;;;;;;;102.65;58.90;;;;;;;;;;5079645;28;20043;-67
2023/02/16 05:24:27;;;;;;;104.53;59.35;;;;;;;;;;5096108;28;20063;-67
2023/02/16 05:26:54;;;;;;;103.63;59.97;;;;;;;;;;5098189;28;20447;-68
2023/02/16 05:29:20;;;;;;;103.50;60.05;;;;;;;;;;5094661;28;20044;-67
2023/02/16 05:31:46;;;;;;;107.50;60.53;;;;;;;;;;5098185;28;20463;-67
2023/02/16 05:34:12;;;;;;;118.00;62.97;;;;;;;;;;5095182;28;20032;-67
2023/02/16 05:36:38;;;;;;;111.40;62.53;;;;;;;;;;5101896;28;20583;-67
2023/02/16 05:39:05;;;;;;;116.28;62.47;;;;;;;;;;5097098;28;20479;-68
2023/02/16 05:41:31;;;;;;;106.38;61.60;;;;;;;;;;5077648;28;20059;-67
2023/02/16 05:43:59;;;;;;;105.72;62.88;;;;;;;;;;5092504;28;21839;-67
2023/02/16 05:46:26;;;;;;;111.10;61.75;;;;;;;;;;5095835;28;20044;-67
2023/02/16 05:48:53;;;;;;;121.30;63.42;;;;;;;;;;5075602;28;20035;-67
2023/02/16 05:51:20;;;;;;;106.80;62.30;;;;;;;;;;5093296;28;20123;-67
2023/02/16 05:53:46;;;;;;;115.03;64.75;;;;;;;;;;5095052;28;20034;-67
2023/02/16 05:56:12;;;;;;;112.20;63.88;;;;;;;;;;5097154;28;20055;-68
2023/02/16 05:58:39;;;;;;;115.40;65.97;;;;;;;;;;5077508;28;20051;-67
2023/02/16 06:01:05;;;;;;;121.38;61.40;;;;;;;;;;5096207;28;20543;-67
2023/02/16 06:03:31;;;;;;;112.88;63.70;;;;;;;;;;5095244;28;20111;-67
2023/02/16 06:05:59;;;;;;;117.35;64.38;;;;;;;;;;5074797;28;20051;-67
2023/02/16 06:08:26;;;;;;;113.53;63.70;;;;;;;;;;5092418;28;20077;-67
2023/02/16 06:10:53;;;;;;;118.43;66.72;;;;;;;;;;5094692;28;20492;-67
2023/02/16 06:13:19;;;;;;;117.80;64.53;;;;;;;;;;5100342;28;20093;-67
2023/02/16 06:15:46;;;;;;;115.85;64.22;;;;;;;;;;5096449;28;20071;-67
2023/02/16 06:18:12;;;;;;;114.88;65.45;;;;;;;;;;5094809;28;20486;-67
2023/02/16 06:20:40;;;;;;;123.65;67.20;;;;;;;;;;5093924;28;20051;-67
2023/02/16 06:23:07;;;;;;;112.75;64.47;;;;;;;;;;5097754;28;20036;-67
2023/02/16 06:25:33;;;;;;;112.55;66.07;;;;;;;;;;5096749;28;20075;-67
2023/02/16 06:27:59;;;;;;;107.15;62.08;;;;;;;;;;5095888;28;20044;-67
2023/02/16 06:30:25;;;;;;;111.47;65.13;;;;;;;;;;5095198;28;20486;-67
2023/02/16 06:32:52;;;;;;;112.28;63.08;;;;;;;;;;5095311;28;20032;-67
2023/02/16 06:35:18;;;;;;;115.60;64.60;;;;;;;;;;5096598;28;20052;-67
2023/02/16 06:37:44;;;;;;;108.95;62.28;;;;;;;;;;5106520;28;20044;-67
2023/02/16 06:40:13;;;;;;;117.65;64.07;;;;;;;;;;5079044;28;20040;-67
2023/02/16 06:42:39;;;;;;;112.78;63.70;;;;;;;;;;5088723;28;20039;-67
2023/02/16 06:45:07;;;;;;;115.18;64.05;;;;;;;;;;5106961;28;20047;-67
2023/02/16 06:47:33;;;;;;;116.13;64.22;;;;;;;;;;5102790;28;20086;-67
2023/02/16 06:50:00;;;;;;;113.78;63.35;;;;;;;;;;5095513;28;20487;-67
2023/02/16 06:52:26;;;;;;;116.65;67.45;;;;;;;;;;5074367;28;20127;-67
2023/02/16 06:54:52;;;;;;;120.35;64.60;;;;;;;;;;5093787;28;20446;-67
2023/02/16 06:57:18;;;;;;;117.07;64.28;;;;;;;;;;5086773;28;20047;-67
2023/02/16 06:59:45;;;;;;;107.75;60.58;;;;;;;;;;5099530;28;20349;-67
2023/02/16 07:02:11;;;;;;;112.07;64.03;;;;;;;;;;5094733;28;20078;-67
2023/02/16 07:04:37;;;;;;;108.15;62.45;;;;;;;;;;5095833;28;20081;-67
2023/02/16 07:07:03;;;;;;;113.97;64.72;;;;;;;;;;5076564;28;20116;-67
2023/02/16 07:09:30;;;;;;;109.43;63.00;;;;;;;;;;5098231;28;21420;-67
2023/02/16 07:11:56;;;;;;;116.82;66.22;;;;;;;;;;5094074;28;20139;-68
2023/02/16 07:14:22;;;;;;;110.22;64.75;;;;;;;;;;5095895;28;20032;-68
2023/02/16 07:16:48;;;;;;;117.55;66.10;;;;;;;;;;5075980;28;20051;-67
2023/02/16 07:19:14;;;;;;;113.35;65.55;;;;;;;;;;5095459;28;20047;-68
2023/02/16 07:21:41;;;;;;;119.32;66.57;;;;;;;;;;5077519;28;20054;-68
2023/02/16 07:24:07;;;;;;;119.22;66.32;;;;;;;;;;5097482;28;20487;-68
2023/02/16 07:26:33;;;;;;;124.18;66.78;;;;;;;;;;5096012;28;20434;-68
2023/02/16 07:28:59;;;;;;;121.43;67.40;;;;;;;;;;5076189;28;20446;-67
2023/02/16 07:31:25;;;;;;;117.28;64.75;;;;;;;;;;5096310;28;20101;-68
2023/02/16 07:33:52;;;;;;;117.55;66.10;;;;;;;;;;5077788;28;20088;-67
2023/02/16 07:36:19;;;;;;;111.63;66.18;;;;;;;;;;5093589;28;20069;-68
2023/02/16 07:38:45;;;;;;;115.32;63.97;;;;;;;;;;5094295;28;20036;-67
2023/02/16 07:41:11;;;;;;;118.85;65.55;;;;;;;;;;5093850;28;20044;-66
2023/02/16 07:43:38;;;;;;;110.45;63.88;;;;;;;;;;5095485;28;20055;-66
2023/02/16 07:46:04;;;;;;;116.70;65.25;;;;;;;;;;5094065;28;20040;-66
2023/02/16 07:48:31;;;;;;;107.00;64.20;;;;;;;;;;5094601;28;20513;-66
2023/02/16 07:50:57;;;;;;;107.40;65.70;;;;;;;;;;5094155;28;20525;-66
2023/02/16 07:53:23;;;;;;;111.32;64.28;;;;;;;;;;5094675;28;20044;-66
2023/02/16 07:55:49;;;;;;;112.43;63.60;;;;;;;;;;5093330;28;20043;-66
2023/02/16 07:58:26;;;;;;;109.30;62.45;;;;;;;;;;5076641;28;20352;-67
2023/02/16 08:00:53;;;;;;;103.93;61.00;;;;;;;;;;5078359;28;20043;-67
2023/02/16 08:03:19;;;;;;;110.65;63.90;;;;;;;;;;5100487;28;20047;-67
2023/02/16 08:05:46;;;;;;;116.80;63.42;;;;;;;;;;5095517;28;20044;-68
2023/02/16 08:08:12;;;;;;;108.90;62.17;;;;;;;;;;5099017;28;20050;-68
2023/02/16 08:10:38;;;;;;;114.60;63.03;;;;;;;;;;5086706;28;20043;-67
2023/02/16 08:13:04;;;;;;;107.15;62.47;;;;;;;;;;5101262;28;20093;-67
2023/02/16 08:15:30;;;;;;;112.43;63.85;;;;;;;;;;5100588;28;20124;-67
2023/02/16 08:17:57;;;;;;;107.72;62.60;;;;;;;;;;5100102;28;20050;-67
2023/02/16 08:20:23;;;;;;;117.53;65.53;;;;;;;;;;5096169;28;20483;-67
2023/02/16 08:22:50;;;;;;;121.80;67.20;;;;;;;;;;5093703;28;20052;-67
2023/02/16 08:25:16;;;;;;;106.60;62.80;;;;;;;;;;5075535;28;20056;-67
2023/02/16 08:27:42;;;;;;;114.65;64.70;;;;;;;;;;5095694;28;20050;-67
2023/02/16 08:30:11;;;;;;;112.75;62.17;;;;;;;;;;5095370;28;20118;-68
2023/02/16 08:32:39;;;;;;;112.88;64.25;;;;;;;;;;5092276;28;20109;-68
2023/02/16 08:35:07;;;;;;;117.82;64.05;;;;;;;;;;5093402;28;20075;-68
2023/02/16 08:37:33;;;;;;;109.47;64.10;;;;;;;;;;5093285;28;20320;-68
2023/02/16 08:40:01;;;;;;;111.50;63.38;;;;;;;;;;5075493;28;20144;-67
2023/02/16 08:42:27;;;;;;;109.32;63.05;;;;;;;;;;5096482;28;20055;-67
2023/02/16 08:44:54;;;;;;;106.50;63.67;;;;;;;;;;5094489;28;20050;-67
2023/02/16 08:47:20;;;;;;;105.78;60.30;;;;;;;;;;5098016;28;20086;-68
2023/02/16 08:49:46;;;;;;;98.15;58.08;;;;;;;;;;5076459;28;20056;-68
2023/02/16 08:52:13;;;;;;;104.20;58.08;;;;;;;;;;5091140;28;20036;-68
2023/02/16 08:54:39;;;;;;;108.72;60.45;;;;;;;;;;5093682;28;20122;-68
2023/02/16 08:57:05;;;;;;;105.57;60.83;;;;;;;;;;5077614;28;20045;-68
2023/02/16 08:59:33;;;;;;;101.55;60.85;;;;;;;;;;5074500;28;20067;-68
2023/02/16 09:01:59;;;;;;;100.82;57.88;;;;;;;;;;5092826;28;20054;-68
2023/02/16 09:04:27;;;;;;;112.93;59.70;;;;;;;;;;5093445;28;20097;-68
2023/02/16 09:06:55;;;;;;;99.18;57.67;;;;;;;;;;5074985;28;20136;-68
2023/02/16 09:09:21;;;;;;;103.07;61.55;;;;;;;;;;5096016;28;20067;-68
2023/02/16 09:11:48;;;;;;;99.65;59.53;;;;;;;;;;5092815;28;20441;-72
2023/02/16 09:14:15;;;;;;;98.70;58.53;;;;;;;;;;5093227;28;20047;-68
2023/02/16 09:16:44;;;;;;;94.72;56.08;;;;;;;;;;5094308;28;20055;-67
2023/02/16 09:19:12;;;;;;;93.82;57.85;;;;;;;;;;5095295;28;20043;-68
2023/02/16 09:21:39;;;;;;;98.80;57.45;;;;;;;;;;5096748;28;20093;-68
2023/02/16 09:24:05;;;;;;;94.88;55.08;;;;;;;;;;5095783;28;20072;-67
2023/02/16 09:26:33;;;;;;;90.78;55.88;;;;;;;;;;5092069;28;20040;-67
2023/02/16 09:29:00;;;;;;;99.38;57.72;;;;;;;;;;5092173;28;20134;-68
2023/02/16 09:31:29;;;;;;;103.38;60.28;;;;;;;;;;5091723;28;20056;-67
2023/02/16 09:33:57;;;;;;;104.20;59.20;;;;;;;;;;5071518;28;20052;-67
2023/02/16 09:36:23;;;;;;;102.00;57.97;;;;;;;;;;5075219;28;20040;-68
2023/02/16 09:38:50;;;;;;;94.75;57.85;;;;;;;;;;5090252;28;20036;-67
2023/02/16 09:41:21;;;;;;;93.15;56.10;;;;;;;;;;5081934;28;20051;-67
2023/02/16 09:43:52;;;;;;;93.63;57.78;;;;;;;;;;5078927;28;20055;-67
2023/02/16 09:46:20;;;;;;;96.97;58.90;;;;;;;;;;5084706;28;20135;-67
2023/02/16 09:48:49;;;;;;;91.95;57.95;;;;;;;;;;5097295;28;20044;-67
2023/02/16 09:51:18;;;;;;;92.53;56.85;;;;;;;;;;5086921;28;20055;-68
2023/02/16 09:53:46;;;;;;;98.00;57.67;;;;;;;;;;5097631;28;20044;-67
2023/02/16 09:56:19;;;;;;;102.75;57.70;;;;;;;;;;5084141;28;20097;-67
2023/02/16 09:58:49;;;;;;;94.40;58.17;;;;;;;;;;5086258;28;20040;-68
2023/02/16 10:01:27;;;;;;;98.45;57.83;;;;;;;;;;5097592;28;20402;-67
2023/02/16 10:04:01;;;;;;;96.53;57.72;;;;;;;;;;5078046;28;20105;-67
2023/02/16 10:06:35;;;;;;;97.93;55.15;;;;;;;;;;5098846;28;20637;-67
2023/02/16 10:09:02;;;;;;;;;;;;;;;;;;5100161;28;20514;-68
2023/02/16 10:11:36;;;;;;;107.50;59.15;;;;;;;;;;5084081;28;20004;-67
2023/02/16 10:14:07;;;;;;;100.35;56.75;;;;;;;;;;5095327;28;20058;-67
2023/02/16 10:16:37;;;;;;;101.35;58.60;;;;;;;;;;5100918;28;20059;-67
2023/02/16 10:19:08;;;;;;;98.60;58.42;;;;;;;;;;5095163;28;20111;-67
2023/02/16 10:21:35;;;;;;;87.13;54.60;;;;;;;;;;5099016;28;20043;-68
2023/02/16 10:24:03;;;;;;;92.80;55.78;;;;;;;;;;5094687;28;20055;-67
2023/02/16 10:26:29;;;;;;;87.97;53.65;;;;;;;;;;5097133;28;20071;-67
2023/02/16 10:28:59;;;;;;;96.75;58.95;;;;;;;;;;5081991;28;20127;-67
2023/02/16 10:31:25;;;;;;;90.57;54.75;;;;;;;;;;5094473;28;20083;-66
2023/02/16 10:34:10;;;;;;;89.22;53.33;;;;;;;;;;5098993;28;20054;-67
2023/02/16 10:36:54;;;;;;;101.45;57.92;;;;;;;;;;5086930;28;21784;-67
2023/02/16 10:39:25;;;;;;;96.30;56.92;;;;;;;;;;5101307;28;20118;-67
2023/02/16 10:41:58;;;;;;;93.10;57.20;;;;;;;;;;5094179;28;20048;-67
2023/02/16 10:44:28;;;;;;;91.03;54.83;;;;;;;;;;5077036;28;20071;-67
2023/02/16 10:46:57;;;;;;;88.07;55.60;;;;;;;;;;5103103;28;20090;-67
2023/02/16 10:49:25;;;;;;;92.93;54.25;;;;;;;;;;5084252;28;20040;-67
2023/02/16 10:51:52;;;;;;;102.43;56.67;;;;;;;;;;5084413;28;20047;-67
2023/02/16 10:54:22;;;;;;;94.47;56.85;;;;;;;;;;5104871;28;20090;-68
2023/02/16 10:56:51;;;;;;;100.93;57.72;;;;;;;;;;5100383;28;20491;-67
2023/02/16 10:59:19;;;;;;;97.00;56.78;;;;;;;;;;5101272;28;20040;-67
2023/02/16 11:01:48;;;;;;;94.68;56.63;;;;;;;;;;5101500;28;20047;-67
2023/02/16 11:04:32;;;;;;;95.55;57.35;;;;;;;;;;5107604;28;20040;-67
2023/02/16 11:07:04;;;;;;;107.88;57.80;;;;;;;;;;5096384;28;20494;-67
2023/02/16 11:09:31;;;;;;;123.90;59.42;;;;;;;;;;5081457;28;20086;-67
2023/02/16 11:11:57;;;;;;;102.50;56.70;;;;;;;;;;5093844;28;20039;-67
2023/02/16 11:14:28;;;;;;;90.78;54.88;;;;;;;;;;5077811;28;20426;-67
2023/02/16 11:17:04;;;;;;;99.15;56.47;;;;;;;;;;5099633;28;20056;-67
2023/02/16 11:19:32;;;;;;;98.80;56.50;;;;;;;;;;5101144;28;21275;-67
2023/02/16 11:21:58;;;;;;;100.68;57.83;;;;;;;;;;5101312;28;20128;-67
2023/02/16 11:24:24;;;;;;;100.07;56.83;;;;;;;;;;5101734;28;20036;-66
2023/02/16 11:27:05;;;;;;;96.90;57.33;;;;;;;;;;5095345;28;20044;-67
2023/02/16 11:29:32;;;;;;;96.72;53.40;;;;;;;;;;5103474;28;20355;-67
2023/02/16 11:31:59;;;;;;;98.22;55.15;;;;;;;;;;5102189;28;20040;-67
2023/02/16 11:34:25;;;;;;;95.63;54.70;;;;;;;;;;5087094;28;20102;-68
2023/02/16 11:36:52;;;;;;;92.85;55.33;;;;;;;;;;5082495;28;20122;-67
2023/02/16 11:39:19;;;;;;;88.60;54.60;;;;;;;;;;5088442;28;20054;-67
2023/02/16 11:41:50;;;;;;;89.53;54.67;;;;;;;;;;5103633;28;20122;-67
2023/02/16 11:44:28;;;;;;;94.50;55.78;;;;;;;;;;5107499;28;20035;-67
2023/02/16 11:46:56;;;;;;;89.30;54.95;;;;;;;;;;5096307;28;20040;-67
2023/02/16 11:49:29;;;;;;;90.13;56.33;;;;;;;;;;5084571;28;20040;-66
2023/02/16 11:51:56;;;;;;;90.63;55.83;;;;;;;;;;5108567;28;20043;-67
2023/02/16 11:54:22;;;;;;;96.65;55.22;;;;;;;;;;5102881;28;20122;-67
2023/02/16 11:57:02;;;;;;;89.88;52.22;;;;;;;;;;5085625;28;20093;-68
2023/02/16 11:59:31;;;;;;;84.40;49.72;;;;;;;;;;5084937;28;20043;-68
2023/02/16 12:02:19;;;;;;;81.93;51.10;;;;;;;;;;5085605;28;20052;-67
2023/02/16 12:04:46;;;;;;;82.68;51.80;;;;;;;;;;5094544;28;20116;-67
2023/02/16 12:07:25;;;;;;;84.60;50.63;;;;;;;;;;5086344;28;20067;-68
2023/02/16 12:10:02;;;;;;;73.25;46.97;;;;;;;;;;5074987;28;20051;-67
2023/02/16 12:12:37;;;;;;;75.15;46.15;;;;;;;;;;5078437;28;20040;-67
2023/02/16 12:15:10;;;;;;;68.95;44.65;;;;;;;;;;5086692;28;20079;-68
2023/02/16 12:17:39;;;;;;;73.55;48.20;;;;;;;;;;5097106;28;20055;-68
2023/02/16 12:20:30;;;;;;;71.45;45.50;;;;;;;;;;5089852;28;20081;-67
2023/02/16 12:23:01;;;;;;;71.18;46.97;;;;;;;;;;5092976;28;20063;-67
2023/02/16 12:25:33;;;;;;;63.38;42.53;;;;;;;;;;5091718;28;20068;-68
2023/02/16 12:27:59;;;;;;;74.18;46.42;;;;;;;;;;5094351;28;20044;-68
2023/02/16 12:30:40;;;;;;;73.20;45.40;;;;;;;;;;5094237;28;20085;-68
2023/02/16 12:33:16;;;;;;;66.57;42.63;;;;;;;;;;5081072;28;20135;-68
2023/02/16 12:35:42;;;;;;;71.75;42.67;;;;;;;;;;5092844;28;20040;-68
2023/02/16 12:38:21;;;;;;;67.30;38.83;;;;;;;;;;5093526;28;20491;-68
2023/02/16 12:41:01;;;;;;;62.78;36.85;;;;;;;;;;5093093;28;20108;-68
2023/02/16 12:43:29;;;;;;;51.10;35.03;;;;;;;;;;5086506;28;20036;-68
2023/02/16 12:45:57;;;;;;;59.70;34.90;;;;;;;;;;5092331;28;20043;-68
2023/02/16 12:48:25;;;;;;;55.42;36.15;;;;;;;;;;5090406;28;20460;-68
2023/02/16 12:50:52;;;;;;;59.40;38.90;;;;;;;;;;5076921;28;20360;-68
2023/02/16 12:53:25;;;;;;;55.58;36.33;;;;;;;;;;5090384;28;20043;-68
2023/02/16 12:55:54;;;;;;;52.05;34.08;;;;;;;;;;5095021;28;20262;-68
2023/02/16 12:58:36;;;;;;;52.00;35.17;;;;;;;;;;5090717;28;20044;-68
2023/02/16 13:01:14;;;;;;;56.85;38.22;;;;;;;;;;5094205;28;20048;-68
2023/02/16 13:03:46;;;;;;;62.58;40.35;;;;;;;;;;5095427;28;20043;-68
2023/02/16 13:06:19;;;;;;;66.70;42.28;;;;;;;;;;5091621;28;20063;-68
2023/02/16 13:08:55;;;;;;;66.18;41.92;;;;;;;;;;5072441;28;20044;-68
2023/02/16 13:11:24;;;;;;;70.68;45.05;;;;;;;;;;5092500;28;20036;-68
2023/02/16 13:13:52;;;;;;;64.47;42.95;;;;;;;;;;5098786;28;20044;-68
2023/02/16 13:16:18;;;;;;;66.53;41.20;;;;;;;;;;5083763;28;20168;-68
2023/02/16 13:18:46;;;;;;;67.03;44.25;;;;;;;;;;5080290;28;20048;-67
2023/02/16 13:21:31;;;;;;;64.75;41.97;;;;;;;;;;5086799;28;20040;-67
2023/02/16 13:24:09;;;;;;;63.35;42.60;;;;;;;;;;5077532;28;20040;-67
2023/02/16 13:26:35;;;;;;;67.38;43.78;;;;;;;;;;5100511;28;20048;-68
2023/02/16 13:29:14;;;;;;;71.53;44.72;;;;;;;;;;5100470;28;20071;-67
2023/02/16 13:31:44;;;;;;;73.15;46.22;;;;;;;;;;5087937;28;20058;-68
2023/02/16 13:34:10;;;;;;;76.88;44.85;;;;;;;;;;5106785;28;20550;-67
2023/02/16 13:36:49;;;;;;;70.88;46.90;;;;;;;;;;5102340;28;20048;-67
2023/02/16 13:39:22;;;;;;;73.15;44.55;;;;;;;;;;5093974;28;20105;-68
2023/02/16 13:41:57;;;;;;;88.65;47.28;;;;;;;;;;5075066;28;20408;-67
2023/02/16 13:44:27;;;;;;;80.95;49.38;;;;;;;;;;5072825;28;20391;-68
2023/02/16 13:46:54;;;;;;;67.60;44.50;;;;;;;;;;5076134;28;20040;-68
2023/02/16 13:49:29;;;;;;;74.18;43.90;;;;;;;;;;5077675;28;20047;-68
2023/02/16 13:51:56;;;;;;;69.75;45.45;;;;;;;;;;5077537;28;20115;-68
2023/02/16 13:54:26;;;;;;;66.63;43.03;;;;;;;;;;5074415;28;20042;-68
2023/02/16 13:56:53;;;;;;;65.78;43.53;;;;;;;;;;5074888;28;20045;-68
2023/02/16 13:59:19;;;;;;;70.68;44.95;;;;;;;;;;5073146;28;20044;-67
2023/02/16 14:01:48;;;;;;;62.03;42.30;;;;;;;;;;5072127;28;20076;-68
2023/02/16 14:04:21;;;;;;;66.43;41.83;;;;;;;;;;5071292;28;20041;-67
2023/02/16 14:06:50;;;;;;;62.58;41.22;;;;;;;;;;5075484;28;20071;-68
2023/02/16 14:09:18;;;;;;;65.68;41.15;;;;;;;;;;5074753;28;20064;-68
2023/02/16 14:11:52;;;;;;;63.50;41.90;;;;;;;;;;5078131;28;20461;-68
2023/02/16 14:14:37;;;;;;;60.95;41.03;;;;;;;;;;5073145;28;20084;-67
2023/02/16 14:17:24;;;;;;;54.45;37.08;;;;;;;;;;5072789;28;20040;-68
2023/02/16 14:19:56;;;;;;;55.72;37.05;;;;;;;;;;5069665;28;20090;-68
2023/02/16 14:22:29;;;;;;;58.80;37.47;;;;;;;;;;5070760;28;20059;-68
2023/02/16 14:24:58;;;;;;;67.32;39.70;;;;;;;;;;5073046;28;20070;-68
2023/02/16 14:27:42;;;;;;;60.33;40.15;;;;;;;;;;5075221;28;20369;-68
2023/02/16 14:30:14;;;;;;;61.65;38.05;;;;;;;;;;5072056;28;20058;-68
2023/02/16 14:32:45;;;;;;;60.20;38.15;;;;;;;;;;5074241;28;20049;-68
2023/02/16 14:35:17;;;;;;;56.72;37.90;;;;;;;;;;5075064;28;20094;-68
2023/02/16 14:37:52;;;;;;;58.25;35.65;;;;;;;;;;5080728;28;20412;-68
2023/02/16 14:40:21;;;;;;;52.58;34.33;;;;;;;;;;5077313;28;20481;-68
2023/02/16 14:42:51;;;;;;;53.20;35.33;;;;;;;;;;5094402;28;20430;-68
2023/02/16 14:45:36;;;;;;;50.35;34.75;;;;;;;;;;5098387;28;20044;-68
2023/02/16 14:48:12;;;;;;;59.30;33.65;;;;;;;;;;5096803;28;20039;-68
2023/02/16 14:50:39;;;;;;;53.55;33.22;;;;;;;;;;5093991;28;20039;-68
2023/02/16 14:53:11;;;;;;;48.38;31.80;;;;;;;;;;5096127;28;20070;-67
2023/02/16 14:55:46;;;;;;;49.35;32.45;;;;;;;;;;5072328;28;20036;-68
2023/02/16 14:58:20;;;;;;;53.58;33.30;;;;;;;;;;5077001;28;20119;-68